createdAt,value
2019-06-27T00:00:58.965Z,102059.03
2019-06-27T00:03:27.480Z,102052.00
2019-06-27T00:05:55.981Z,102059.94
2019-06-27T00:08:24.519Z,102055.12
2019-06-27T00:10:53.143Z,102051.59
2019-06-27T00:13:21.626Z,102045.45
2019-06-27T00:15:50.111Z,102052.01
2019-06-27T00:18:18.628Z,102045.46
2019-06-27T00:20:48.776Z,102049.40
2019-06-27T00:23:17.276Z,102059.94
2019-06-27T00:25:45.822Z,102066.53
2019-06-27T00:28:14.300Z,102062.14
2019-06-27T00:30:43.973Z,102072.67
2019-06-27T00:33:12.448Z,102070.92
2019-06-27T00:35:40.925Z,102070.04
2019-06-27T00:38:09.473Z,102073.54
2019-06-27T00:40:37.967Z,102075.73
2019-06-27T00:43:06.443Z,102080.11
2019-06-27T00:45:34.965Z,102076.63
2019-06-27T00:48:03.446Z,102074.84
2019-06-27T00:50:31.925Z,102079.23
2019-06-27T00:53:00.443Z,102085.38
2019-06-27T00:55:28.913Z,102078.78
2019-06-27T00:57:57.400Z,102082.70
2019-06-27T01:00:25.999Z,102077.87
2019-06-27T01:02:54.472Z,102080.95
2019-06-27T01:05:23.016Z,102080.03
2019-06-27T01:07:51.543Z,102072.57
2019-06-27T01:10:20.491Z,102079.98
2019-06-27T01:12:48.981Z,102086.97
2019-06-27T01:15:17.645Z,102083.02
2019-06-27T01:17:46.140Z,102083.00
2019-06-27T01:20:14.767Z,102083.87
2019-06-27T01:22:43.288Z,102080.77
2019-06-27T01:25:11.785Z,102087.75
2019-06-27T01:27:40.269Z,102089.47
2019-06-27T01:30:09.090Z,102094.70
2019-06-27T01:32:38.586Z,102095.11
2019-06-27T01:35:07.945Z,102093.73
2019-06-27T01:37:36.523Z,102096.30
2019-06-27T01:40:07.522Z,102091.47
2019-06-27T01:42:36.014Z,102093.16
2019-06-27T01:45:08.164Z,102098.36
2019-06-27T01:47:36.670Z,102097.87
2019-06-27T01:50:06.701Z,102101.34
2019-06-27T01:52:35.229Z,102103.08
2019-06-27T01:55:05.754Z,102102.20
2019-06-27T01:57:45.999Z,102103.52
2019-06-27T02:00:06.792Z,102097.81
2019-06-27T02:02:35.289Z,102102.16
2019-06-27T02:05:05.810Z,102096.45
2019-06-27T02:07:34.655Z,102103.88
2019-06-27T02:10:05.255Z,102104.28
2019-06-27T02:12:33.742Z,102110.41
2019-06-27T02:15:02.269Z,102103.39
2019-06-27T02:17:30.829Z,102101.16
2019-06-27T02:19:59.335Z,102102.00
2019-06-27T02:22:27.876Z,102101.98
2019-06-27T02:24:56.371Z,102103.22
2019-06-27T02:27:26.509Z,102104.48
2019-06-27T02:29:55.207Z,102109.66
2019-06-27T02:32:23.686Z,102116.20
2019-06-27T02:34:52.303Z,102118.30
2019-06-27T02:37:20.830Z,102115.63
2019-06-27T02:39:49.312Z,102117.77
2019-06-27T02:42:17.799Z,102122.55
2019-06-27T02:44:46.416Z,102113.31
2019-06-27T02:47:14.893Z,102121.15
2019-06-27T02:49:43.373Z,102118.09
2019-06-27T02:52:11.892Z,102119.84
2019-06-27T02:54:40.378Z,102124.61
2019-06-27T02:57:09.065Z,102124.19
2019-06-27T02:59:37.595Z,102119.81
2019-06-27T03:02:06.074Z,102126.80
2019-06-27T03:04:34.550Z,102125.02
2019-06-27T03:07:03.095Z,102121.09
2019-06-27T03:09:31.579Z,102128.11
2019-06-27T03:12:00.859Z,102125.92
2019-06-27T03:14:29.553Z,102120.25
2019-06-27T03:16:58.036Z,102115.00
2019-06-27T03:19:26.530Z,102115.01
2019-06-27T03:21:55.045Z,102119.38
2019-06-27T03:24:23.573Z,102126.34
2019-06-27T03:26:52.134Z,102124.15
2019-06-27T03:29:20.864Z,102131.58
2019-06-27T03:31:49.397Z,102127.21
2019-06-27T03:34:17.884Z,102133.32
2019-06-27T03:36:47.492Z,102133.77
2019-06-27T03:39:16.041Z,102136.76
2019-06-27T03:41:44.621Z,102132.83
2019-06-27T03:44:13.234Z,102143.72
2019-06-27T03:46:41.739Z,102138.04
2019-06-27T03:49:10.253Z,102135.86
2019-06-27T03:51:38.755Z,102134.55
2019-06-27T03:54:07.251Z,102125.37
2019-06-27T03:56:35.755Z,102131.92
2019-06-27T03:59:12.333Z,102130.20
2019-06-27T04:01:34.506Z,102136.76
2019-06-27T04:04:02.998Z,102141.56
2019-06-27T04:06:31.528Z,102142.50
2019-06-27T04:09:00.024Z,102147.23
2019-06-27T04:11:28.538Z,102146.86
2019-06-27T04:13:57.047Z,102147.73
2019-06-27T04:16:25.530Z,102140.75
2019-06-27T04:18:54.016Z,102143.41
2019-06-27T04:21:24.863Z,102142.52
2019-06-27T04:23:53.376Z,102149.98
2019-06-27T04:26:21.864Z,102153.47
2019-06-27T04:28:50.462Z,102149.16
2019-06-27T04:31:18.979Z,102138.27
2019-06-27T04:33:47.459Z,102140.05
2019-06-27T04:36:15.991Z,102144.47
2019-06-27T04:38:44.801Z,102145.81
2019-06-27T04:41:13.282Z,102143.13
2019-06-27T04:43:41.819Z,102144.45
2019-06-27T04:46:10.304Z,102149.68
2019-06-27T04:48:38.861Z,102147.12
2019-06-27T04:51:07.431Z,102148.48
2019-06-27T04:53:35.907Z,102148.08
2019-06-27T04:56:04.409Z,102156.84
2019-06-27T04:58:32.947Z,102155.52
2019-06-27T05:01:01.433Z,102148.53
2019-06-27T05:03:29.916Z,102150.75
2019-06-27T05:05:58.430Z,102154.23
2019-06-27T05:08:26.908Z,102159.07
2019-06-27T05:10:55.428Z,102157.79
2019-06-27T05:13:23.971Z,102159.97
2019-06-27T05:15:52.470Z,102170.05
2019-06-27T05:18:20.950Z,102174.48
2019-06-27T05:20:49.485Z,102172.72
2019-06-27T05:23:17.964Z,102178.02
2019-06-27T05:25:46.458Z,102166.68
2019-06-27T05:28:15.021Z,102168.89
2019-06-27T05:30:43.616Z,102172.84
2019-06-27T05:33:12.165Z,102179.89
2019-06-27T05:35:40.698Z,102176.42
2019-06-27T05:38:09.218Z,102179.53
2019-06-27T05:40:38.738Z,102182.61
2019-06-27T05:43:07.286Z,102172.16
2019-06-27T05:45:35.837Z,102179.17
2019-06-27T05:48:04.328Z,102185.31
2019-06-27T05:50:32.862Z,102182.30
2019-06-27T05:53:01.347Z,102173.55
2019-06-27T05:55:29.842Z,102187.57
2019-06-27T05:57:58.372Z,102182.34
2019-06-27T06:00:29.512Z,102199.00
2019-06-27T06:02:58.358Z,102195.10
2019-06-27T06:05:26.888Z,102198.19
2019-06-27T06:07:56.567Z,102197.39
2019-06-27T06:10:25.135Z,102197.02
2019-06-27T06:12:53.705Z,102196.19
2019-06-27T06:15:22.182Z,102189.70
2019-06-27T06:17:50.812Z,102198.08
2019-06-27T06:20:19.600Z,102198.56
2019-06-27T06:22:48.081Z,102197.75
2019-06-27T06:25:16.585Z,102193.84
2019-06-27T06:27:45.080Z,102199.12
2019-06-27T06:30:14.044Z,102162.71
2019-06-27T06:32:42.606Z,102194.34
2019-06-27T06:35:11.197Z,102201.02
2019-06-27T06:37:39.726Z,102209.81
2019-06-27T06:40:09.541Z,102200.63
2019-06-27T06:42:38.271Z,102197.54
2019-06-27T06:45:08.651Z,102206.30
2019-06-27T06:47:37.170Z,102206.31
2019-06-27T06:50:06.847Z,102201.48
2019-06-27T06:52:35.346Z,102207.61
2019-06-27T06:55:05.247Z,102205.45
2019-06-27T06:57:33.795Z,102201.08
2019-06-27T07:00:02.297Z,102201.98
2019-06-27T07:02:30.824Z,102205.06
2019-06-27T07:04:59.376Z,102206.41
2019-06-27T07:07:27.874Z,102203.36
2019-06-27T07:09:57.025Z,102207.75
2019-06-27T07:12:25.572Z,102204.23
2019-06-27T07:14:54.095Z,102198.55
2019-06-27T07:17:22.569Z,102199.02
2019-06-27T07:19:51.096Z,102206.02
2019-06-27T07:22:19.587Z,102202.56
2019-06-27T07:24:48.072Z,102197.28
2019-06-27T07:27:16.622Z,102191.59
2019-06-27T07:29:45.105Z,102191.16
2019-06-27T07:32:13.593Z,102187.62
2019-06-27T07:34:42.141Z,102197.26
2019-06-27T07:37:10.710Z,102188.45
2019-06-27T07:39:39.209Z,102194.58
2019-06-27T07:42:07.733Z,102194.14
2019-06-27T07:44:37.240Z,102197.20
2019-06-27T07:47:05.737Z,102191.90
2019-06-27T07:49:34.239Z,102188.38
2019-06-27T07:52:02.728Z,102191.45
2019-06-27T07:54:31.206Z,102186.14
2019-06-27T07:56:59.745Z,102187.02
2019-06-27T07:59:28.264Z,102198.88
2019-06-27T08:01:56.751Z,102205.47
2019-06-27T08:04:25.289Z,102192.70
2019-06-27T08:06:53.765Z,102202.81
2019-06-27T08:09:22.245Z,102191.81
2019-06-27T08:11:50.851Z,102190.02
2019-06-27T08:14:19.376Z,102192.22
2019-06-27T08:16:47.893Z,102197.45
2019-06-27T08:19:16.413Z,102208.45
2019-06-27T08:21:44.913Z,102199.65
2019-06-27T08:24:13.413Z,102202.27
2019-06-27T08:26:41.938Z,102203.98
2019-06-27T08:29:10.435Z,102193.84
2019-06-27T08:31:50.912Z,102200.43
2019-06-27T08:34:09.183Z,102198.22
2019-06-27T08:36:37.760Z,102204.79
2019-06-27T08:39:06.700Z,102210.05
2019-06-27T08:41:35.221Z,102202.58
2019-06-27T08:44:03.694Z,102205.58
2019-06-27T08:46:32.419Z,102202.50
2019-06-27T08:49:00.959Z,102207.28
2019-06-27T08:51:29.470Z,102202.78
2019-06-27T08:53:57.994Z,102212.86
2019-06-27T08:56:26.535Z,102209.28
2019-06-27T08:58:55.022Z,102209.25
2019-06-27T09:02:07.035Z,102210.64
2019-06-27T09:04:21.021Z,102205.84
2019-06-27T09:06:50.432Z,102205.88
2019-06-27T09:09:19.187Z,102204.06
2019-06-27T09:11:47.593Z,102202.69
2019-06-27T09:14:16.263Z,102210.99
2019-06-27T09:16:46.775Z,102210.54
2019-06-27T09:19:15.404Z,102215.80
2019-06-27T09:21:43.859Z,102219.79
2019-06-27T09:24:12.573Z,102214.89
2019-06-27T09:26:41.275Z,102209.11
2019-06-27T09:29:09.689Z,102219.20
2019-06-27T09:31:38.167Z,102209.53
2019-06-27T09:34:06.515Z,102202.51
2019-06-27T09:36:35.176Z,102212.63
2019-06-27T09:39:04.129Z,102209.08
2019-06-27T09:41:32.510Z,102210.37
2019-06-27T09:44:00.908Z,102206.81
2019-06-27T09:46:29.344Z,102214.25
2019-06-27T09:48:58.083Z,102208.02
2019-06-27T09:51:26.740Z,102212.39
2019-06-27T09:53:55.491Z,102214.13
2019-06-27T09:56:23.882Z,102204.42
2019-06-27T09:58:52.539Z,102211.45
2019-06-27T10:01:21.004Z,102205.25
2019-06-27T10:03:49.685Z,102205.66
2019-06-27T10:06:18.146Z,102195.49
2019-06-27T10:08:46.561Z,102199.83
2019-06-27T10:11:14.967Z,102196.31
2019-06-27T10:13:43.395Z,102199.73
2019-06-27T10:16:11.818Z,102203.61
2019-06-27T10:18:40.216Z,102196.95
2019-06-27T10:21:08.614Z,102206.16
2019-06-27T10:23:37.068Z,102209.22
2019-06-27T10:26:05.533Z,102203.87
2019-06-27T10:28:33.942Z,102208.16
2019-06-27T10:31:02.726Z,102206.83
2019-06-27T10:33:31.151Z,102202.03
2019-06-27T10:35:59.567Z,102209.94
2019-06-27T10:38:28.252Z,102212.13
2019-06-27T10:40:56.660Z,102203.67
2019-06-27T10:43:25.066Z,102211.56
2019-06-27T10:45:53.498Z,102211.12
2019-06-27T10:48:21.887Z,102211.95
2019-06-27T10:50:54.557Z,102214.88
2019-06-27T10:53:21.593Z,102208.50
2019-06-27T10:55:49.988Z,102203.02
2019-06-27T10:58:18.393Z,102205.03
2019-06-27T11:00:46.825Z,102210.66
2019-06-27T11:03:16.517Z,102208.41
2019-06-27T11:05:46.230Z,102205.34
2019-06-27T11:08:14.647Z,102200.93
2019-06-27T11:10:43.059Z,102190.33
2019-06-27T11:13:11.744Z,102198.41
2019-06-27T11:15:40.490Z,102194.43
2019-06-27T11:18:08.909Z,102191.78
2019-06-27T11:20:37.570Z,102196.61
2019-06-27T11:23:06.031Z,102193.38
2019-06-27T11:25:34.420Z,102185.27
2019-06-27T11:28:03.164Z,102183.74
2019-06-27T11:30:31.911Z,102189.36
2019-06-27T11:33:00.576Z,102188.02
2019-06-27T11:35:28.969Z,102185.38
2019-06-27T11:37:57.638Z,102180.92
2019-06-27T11:40:26.040Z,102177.38
2019-06-27T11:42:54.707Z,102174.83
2019-06-27T11:45:23.143Z,102173.98
2019-06-27T11:47:51.555Z,102177.02
2019-06-27T11:50:19.958Z,102171.73
2019-06-27T11:52:48.447Z,102179.69
2019-06-27T11:55:17.290Z,102180.13
2019-06-27T11:57:45.983Z,102179.73
2019-06-27T12:00:15.208Z,102180.70
2019-06-27T12:02:43.584Z,102180.53
2019-06-27T12:05:12.412Z,102171.52
2019-06-27T12:07:40.834Z,102170.05
2019-06-27T12:10:09.998Z,102173.39
2019-06-27T12:12:38.677Z,102164.52
2019-06-27T12:15:07.253Z,102165.60
2019-06-27T12:17:35.944Z,102166.36
2019-06-27T12:20:07.268Z,102165.42
2019-06-27T12:22:35.696Z,102173.73
2019-06-27T12:25:04.552Z,102159.16
2019-06-27T12:27:32.946Z,102153.84
2019-06-27T12:30:01.390Z,102144.94
2019-06-27T12:32:29.802Z,102156.26
2019-06-27T12:34:58.488Z,102101.63
2019-06-27T12:37:26.934Z,102150.40
2019-06-27T12:39:55.660Z,102150.77
2019-06-27T12:42:32.527Z,102152.00
2019-06-27T12:44:54.466Z,102146.53
2019-06-27T12:47:23.282Z,102144.73
2019-06-27T12:50:02.267Z,102148.94
2019-06-27T12:52:22.128Z,102145.73
2019-06-27T12:54:50.572Z,102142.95
2019-06-27T12:57:19.274Z,102136.31
2019-06-27T12:59:47.678Z,102123.95
2019-06-27T13:02:16.128Z,102133.19
2019-06-27T13:04:44.923Z,102132.79
2019-06-27T13:07:13.342Z,102129.85
2019-06-27T13:09:42.022Z,102128.22
2019-06-27T13:12:10.695Z,102120.36
2019-06-27T13:14:39.131Z,102128.63
2019-06-27T13:17:07.520Z,102133.30
2019-06-27T13:19:39.586Z,102126.63
2019-06-27T13:22:06.162Z,102125.23
2019-06-27T13:24:34.563Z,102123.03
2019-06-27T13:27:03.263Z,102121.34
2019-06-27T13:29:31.935Z,102114.14
2019-06-27T13:32:00.611Z,102126.45
2019-06-27T13:34:39.827Z,102120.30
2019-06-27T13:36:59.458Z,102123.42
2019-06-27T13:39:27.902Z,102123.39
2019-06-27T13:41:56.309Z,102124.53
2019-06-27T13:44:25.001Z,102128.37
2019-06-27T13:46:53.739Z,102130.86
2019-06-27T13:49:22.488Z,102128.55
2019-06-27T13:51:51.182Z,102127.34
2019-06-27T13:54:19.855Z,102132.38
2019-06-27T13:56:48.648Z,102124.97
2019-06-27T13:59:17.058Z,102118.84
2019-06-27T14:01:45.472Z,102121.55
2019-06-27T14:04:14.144Z,102121.30
2019-06-27T14:06:42.560Z,102120.50
2019-06-27T14:09:22.229Z,102124.36
2019-06-27T14:11:41.518Z,102110.83
2019-06-27T14:14:11.552Z,102105.11
2019-06-27T14:16:40.256Z,102106.47
2019-06-27T14:19:08.688Z,102114.43
2019-06-27T14:21:37.307Z,102104.35
2019-06-27T14:24:06.066Z,102112.23
2019-06-27T14:26:34.741Z,102118.03
2019-06-27T14:29:03.151Z,102115.89
2019-06-27T14:31:31.550Z,102109.84
2019-06-27T14:33:59.941Z,102119.38
2019-06-27T14:36:28.638Z,102112.36
2019-06-27T14:38:58.582Z,102114.65
2019-06-27T14:41:27.343Z,102115.44
2019-06-27T14:43:55.762Z,102116.67
2019-06-27T14:46:24.173Z,102118.77
2019-06-27T14:48:52.560Z,102124.89
2019-06-27T14:51:21.281Z,102119.80
2019-06-27T14:53:49.696Z,102114.99
2019-06-27T14:56:18.087Z,102120.36
2019-06-27T14:58:47.407Z,102116.84
2019-06-27T15:01:16.096Z,102125.30
2019-06-27T15:03:44.499Z,102120.84
2019-06-27T15:06:13.201Z,102120.86
2019-06-27T15:08:42.024Z,102121.02
2019-06-27T15:11:10.454Z,102122.89
2019-06-27T15:13:38.935Z,102113.17
2019-06-27T15:16:11.781Z,102119.42
2019-06-27T15:18:37.500Z,102114.95
2019-06-27T15:21:05.919Z,102119.61
2019-06-27T15:23:34.328Z,102116.65
2019-06-27T15:26:03.016Z,102114.74
2019-06-27T15:28:34.161Z,102117.23
2019-06-27T15:31:01.838Z,102114.99
2019-06-27T15:33:30.493Z,102109.64
2019-06-27T15:35:58.930Z,102110.42
2019-06-27T15:38:27.349Z,102109.88
2019-06-27T15:40:55.966Z,102112.23
2019-06-27T15:43:24.433Z,102110.22
2019-06-27T15:45:52.842Z,102110.68
2019-06-27T15:48:21.499Z,102112.77
2019-06-27T15:50:49.936Z,102112.38
2019-06-27T15:53:18.326Z,102106.30
2019-06-27T15:55:46.724Z,102107.14
2019-06-27T15:58:15.127Z,102105.27
2019-06-27T16:00:43.889Z,102110.95
2019-06-27T16:03:12.550Z,102106.02
2019-06-27T16:05:40.995Z,102099.42
2019-06-27T16:08:09.419Z,102107.28
2019-06-27T16:10:37.829Z,102107.36
2019-06-27T16:13:06.270Z,102110.03
2019-06-27T16:15:34.674Z,102103.24
2019-06-27T16:18:03.389Z,102115.76
2019-06-27T16:20:31.825Z,102116.16
2019-06-27T16:23:00.220Z,102110.47
2019-06-27T16:25:28.622Z,102106.29
2019-06-27T16:27:57.029Z,102106.77
2019-06-27T16:30:25.589Z,102103.12
2019-06-27T16:32:53.982Z,102109.22
2019-06-27T16:35:22.405Z,102103.67
2019-06-27T16:37:51.102Z,102109.94
2019-06-27T16:40:20.183Z,102108.17
2019-06-27T16:42:48.670Z,102111.11
2019-06-27T16:45:17.195Z,102109.94
2019-06-27T16:47:45.670Z,102114.63
2019-06-27T16:50:15.040Z,102117.45
2019-06-27T16:52:43.758Z,102120.02
2019-06-27T16:55:13.827Z,102116.77
2019-06-27T16:57:43.636Z,102115.56
2019-06-27T17:00:12.381Z,102114.05
2019-06-27T17:02:41.695Z,102124.06
2019-06-27T17:05:10.175Z,102124.03
2019-06-27T17:07:38.668Z,102126.55
2019-06-27T17:10:07.680Z,102126.81
2019-06-27T17:12:37.456Z,102135.18
2019-06-27T17:15:09.237Z,102134.08
2019-06-27T17:17:37.701Z,102133.41
2019-06-27T17:20:08.381Z,102130.78
2019-06-27T17:22:37.085Z,102133.47
2019-06-27T17:25:05.528Z,102133.98
2019-06-27T17:27:34.060Z,102138.70
2019-06-27T17:30:02.584Z,102135.05
2019-06-27T17:32:31.305Z,102133.18
2019-06-27T17:34:59.736Z,102136.30
2019-06-27T17:37:28.120Z,102131.59
2019-06-27T17:39:56.791Z,102129.79
2019-06-27T17:42:25.458Z,102139.53
2019-06-27T17:44:53.868Z,102134.95
2019-06-27T17:47:25.250Z,102141.00
2019-06-27T17:49:53.994Z,102137.97
2019-06-27T17:52:31.504Z,102139.88
2019-06-27T17:54:59.975Z,102138.12
2019-06-27T17:57:30.723Z,102143.20
2019-06-27T17:59:59.494Z,102134.50
2019-06-27T18:02:28.398Z,102132.34
2019-06-27T18:05:01.593Z,102132.27
2019-06-27T18:07:40.817Z,102134.34
2019-06-27T18:10:11.203Z,102137.73
2019-06-27T18:12:39.567Z,102144.00
2019-06-27T18:15:08.848Z,102145.58
2019-06-27T18:17:37.507Z,102153.64
2019-06-27T18:20:07.754Z,102154.61
2019-06-27T18:22:37.099Z,102153.30
2019-06-27T18:25:07.283Z,102157.62
2019-06-27T18:27:35.682Z,102156.66
2019-06-27T18:30:07.414Z,102155.63
2019-06-27T18:32:35.818Z,102155.41
2019-06-27T18:35:04.886Z,102156.02
2019-06-27T18:37:33.302Z,102145.61
2019-06-27T18:40:01.768Z,102159.86
2019-06-27T18:42:30.452Z,102160.87
2019-06-27T18:44:58.837Z,102162.74
2019-06-27T18:47:27.627Z,102159.75
2019-06-27T18:49:56.043Z,102158.94
2019-06-27T18:52:25.067Z,102162.09
2019-06-27T18:54:53.475Z,102162.14
2019-06-27T18:57:22.222Z,102168.34
2019-06-27T18:59:53.698Z,102167.05
2019-06-27T19:02:21.104Z,102163.13
2019-06-27T19:04:49.506Z,102165.82
2019-06-27T19:07:18.882Z,102166.28
2019-06-27T19:09:47.545Z,102175.13
2019-06-27T19:12:19.109Z,102167.27
2019-06-27T19:14:46.087Z,102171.28
2019-06-27T19:17:14.501Z,102170.82
2019-06-27T19:19:44.813Z,102171.72
2019-06-27T19:22:17.590Z,102167.81
2019-06-27T19:24:50.276Z,102177.05
2019-06-27T19:27:18.688Z,102178.38
2019-06-27T19:29:47.132Z,102177.08
2019-06-27T19:32:15.502Z,102185.44
2019-06-27T19:34:43.918Z,102193.77
2019-06-27T19:37:12.344Z,102194.22
2019-06-27T19:39:40.759Z,102198.63
2019-06-27T19:42:09.159Z,102202.14
2019-06-27T19:44:37.854Z,102207.39
2019-06-27T19:47:06.277Z,102202.55
2019-06-27T19:49:34.674Z,102211.30
2019-06-27T19:52:03.162Z,102206.02
2019-06-27T19:54:31.566Z,102211.28
2019-06-27T19:56:59.957Z,102206.87
2019-06-27T19:59:28.379Z,102206.41
2019-06-27T20:01:56.798Z,102212.11
2019-06-27T20:04:25.202Z,102208.14
2019-06-27T20:06:53.611Z,102207.68
2019-06-27T20:09:23.412Z,102204.59
2019-06-27T20:11:51.820Z,102215.97
2019-06-27T20:14:20.502Z,102217.70
2019-06-27T20:16:49.180Z,102215.94
2019-06-27T20:19:17.603Z,102219.91
2019-06-27T20:21:46.085Z,102217.27
2019-06-27T20:24:14.760Z,102217.69
2019-06-27T20:26:43.155Z,102214.17
2019-06-27T20:29:11.956Z,102220.30
2019-06-27T20:31:40.411Z,102223.37
2019-06-27T20:34:08.813Z,102223.35
2019-06-27T20:36:37.481Z,102225.09
2019-06-27T20:39:07.109Z,102225.98
2019-06-27T20:41:35.506Z,102146.83
2019-06-27T20:44:03.937Z,102224.66
2019-06-27T20:46:32.400Z,102232.98
2019-06-27T20:49:00.823Z,102231.23
2019-06-27T20:51:29.296Z,102231.23
2019-06-27T20:53:57.760Z,102229.48
2019-06-27T20:56:26.419Z,102229.92
2019-06-27T20:58:55.133Z,102226.41
2019-06-27T21:01:23.534Z,102224.22
2019-06-27T21:03:51.955Z,102227.72
2019-06-27T21:06:20.641Z,102237.39
2019-06-27T21:08:51.589Z,102232.98
2019-06-27T21:11:19.879Z,102227.27
2019-06-27T21:13:48.311Z,102228.55
2019-06-27T21:16:16.712Z,102230.75
2019-06-27T21:18:45.112Z,102235.12
2019-06-27T21:21:13.512Z,102238.19
2019-06-27T21:23:41.929Z,102234.25
2019-06-27T21:26:10.362Z,102228.97
2019-06-27T21:28:39.056Z,102226.76
2019-06-27T21:31:07.458Z,102242.10
2019-06-27T21:33:35.883Z,102236.84
2019-06-27T21:36:04.301Z,102233.76
2019-06-27T21:38:32.705Z,102240.73
2019-06-27T21:41:01.375Z,102237.64
2019-06-27T21:43:30.047Z,102242.45
2019-06-27T21:45:58.688Z,102242.83
2019-06-27T21:48:27.083Z,102239.75
2019-06-27T21:50:55.844Z,102237.50
2019-06-27T21:53:24.249Z,102239.61
2019-06-27T21:55:52.897Z,102245.27
2019-06-27T21:58:21.375Z,102243.89
2019-06-27T22:00:49.971Z,102245.98
2019-06-27T22:03:18.401Z,102234.98
2019-06-27T22:05:46.787Z,102242.38
2019-06-27T22:08:15.186Z,102236.15
2019-06-27T22:10:43.645Z,102235.23
2019-06-27T22:13:13.056Z,102246.13
2019-06-27T22:15:41.482Z,102242.98
2019-06-27T22:18:09.901Z,102246.44
2019-06-27T22:20:39.689Z,102252.91
2019-06-27T22:23:08.575Z,102179.05
2019-06-27T22:25:40.838Z,102203.19
2019-06-27T22:28:07.399Z,102241.35
2019-06-27T22:30:35.826Z,102235.21
2019-06-27T22:33:04.559Z,102235.15
2019-06-27T22:35:32.996Z,102236.00
2019-06-27T22:38:19.410Z,102236.00
2019-06-27T22:41:05.646Z,102236.38
2019-06-27T22:43:52.595Z,102241.16
2019-06-27T22:46:39.059Z,102238.44
2019-06-27T22:49:06.693Z,102233.58
2019-06-27T22:51:37.102Z,102218.22
2019-06-27T22:54:07.157Z,102219.47
2019-06-27T22:56:35.580Z,102215.51
2019-06-27T22:59:03.995Z,102211.95
2019-06-27T23:01:32.431Z,102214.47
2019-06-27T23:04:00.831Z,102207.89
2019-06-27T23:06:29.227Z,102210.91
2019-06-27T23:08:57.647Z,102210.03
2019-06-27T23:11:26.311Z,102205.64
2019-06-27T23:13:55.733Z,102206.52
2019-06-27T23:16:24.395Z,102209.97
2019-06-27T23:18:53.071Z,102202.52
2019-06-27T23:21:21.726Z,102199.39
2019-06-27T23:23:50.152Z,102193.25
2019-06-27T23:26:18.816Z,102205.88
2019-06-27T23:28:47.220Z,102208.45
2019-06-27T23:31:15.667Z,102206.71
2019-06-27T23:33:44.057Z,102223.67
2019-06-27T23:36:12.463Z,102218.83
2019-06-27T23:38:40.913Z,102220.54
2019-06-27T23:41:09.599Z,102236.18
2019-06-27T23:43:37.986Z,102227.02
2019-06-27T23:46:08.046Z,102231.38
2019-06-27T23:48:36.441Z,102224.39
2019-06-27T23:51:04.840Z,102223.95
2019-06-27T23:53:33.326Z,102233.96
2019-06-27T23:56:01.670Z,102226.54
2019-06-27T23:58:30.058Z,102220.83
